Ci sono più avvisi   Clicca per maggiori informazioni

Nearby METAR Reports

 

LEZL - Sevilla, Spain
Distance from station: ENE 8km
Dati ricevuti: 23/09/2021 03:30
Sereno
Sereno
 Vento da NNE
Vento: NNE 7 km/h
Temperatura: 20°C
P.to Rugiada: 16°C
Umidità: 78%
Barometro: 1012 hPa
Summary: Sereno
Visibility: greater than 10 km
2021/09/23 01:30 LEZL 230130Z AUTO 02004KT CAVOK 20/16 Q1012
LEMO - Morón, Spain
Distance from station: SE 43km
Dati ricevuti: 23/09/2021 03:30
Sereno
Sereno
 Vento da N
Vento: N 4 km/h
Temperatura: 18°C
P.to Rugiada: 16°C
Umidità: 88%
Barometro: 1012 hPa
Summary: Sereno
Visibility: greater than 10 km
2021/09/23 01:30 LEMO 230130Z 36002KT CAVOK 18/16 Q1012 NOSIG
LEJR - Jeréz, Spain
Distance from station: S 71km
Dati ricevuti: 23/09/2021 03:30
Sereno
Sereno
 Vento da ENE
Vento: ENE 2 km/h
Temperatura: 18°C
P.to Rugiada: 17°C
Umidità: 94%
Barometro: 1012 hPa
Summary: Sereno
Visibility: greater than 10 km
2021/09/23 01:30 LEJR 230130Z AUTO 06001KT CAVOK 18/17 Q1012
 
LERT - Rota, Spain
Distance from station: SSO 89km
Dati ricevuti: 23/09/2021 03:30
Parz. nuvoloso
Parz. nuvoloso
 Vento da ESE
Vento: ESE 7 km/h
Temperatura: 22°C
P.to Rugiada: 18°C
Umidità: 78%
Barometro: 1012 hPa
Clouds: Parz. nuvoloso
Visibility: 9 km
Cloud details: Parz. nuvoloso 914 m
2021/09/23 01:30 LERT 230130Z 11004KT 080V140 9000 SCT030 22/18 Q1012 NOSIG
LEMG - Málaga, Spain
Distance from station: ESE 157km
Dati ricevuti: 23/09/2021 03:30
Coperto
Coperto
 Vento da SE
Vento: SE 9 km/h
Temperatura: 22°C
P.to Rugiada: 20°C
Umidità: 88%
Barometro: 1014 hPa
Clouds: Coperto
Visibility: 10 km
Cloud details: Molto nuvoloso 457 m
Coperto 671 m
2021/09/23 01:30 LEMG 230130Z 14005KT 110V170 9999 BKN015 OVC022 22/20 Q1014 NOSIG
LEBA - Córdoba, Spain
Distance from station: ENE 115km
Dati ricevuti: 23/09/2021 03:30
Sereno
Sereno
 Vento da varies
Vento: varies 4 km/h
Temperatura: 19°C
P.to Rugiada: 15°C
Umidità: 78%
Barometro: 1014 hPa
Summary: Sereno
Visibility: greater than 10 km
2021/09/23 01:30 LEBA 230130Z AUTO VRB02KT CAVOK 19/15 Q1014
 
LEGR - Granada, Spain
Distance from station: E 198km
Dati ricevuti: 23/09/2021 03:30
Few Clouds
Few Clouds
 Vento da calm
Vento: Calma
Temperatura: 16°C
P.to Rugiada: 14°C
Umidità: 88%
Barometro: 1016 hPa
Clouds: Few Clouds
Visibility: 10 km
Cloud details: Few Clouds 2743 m
2021/09/23 01:30 LEGR 230130Z AUTO 00000KT 9999 FEW090 16/14 Q1016
LEAM - Almería, Spain
Distance from station: E 326km
Dati ricevuti: 23/09/2021 03:30
Sereno
Sereno
 Vento da N
Vento: N 7 km/h
Temperatura: 22°C
P.to Rugiada: 17°C
Umidità: 73%
Barometro: 1014 hPa
Summary: Sereno
Visibility: greater than 10 km
2021/09/23 01:30 LEAM 230130Z AUTO 35004KT 320V040 CAVOK 22/17 Q1014
LEMD - Madrid/Barajas, Spain
Distance from station: NNE 402km
Dati ricevuti: 23/09/2021 03:30
Few Clouds
Few Clouds
 Vento da N
Vento: N 7 km/h
Temperatura: 14°C
P.to Rugiada: 13°C
Umidità: 94%
Barometro: 1019 hPa
Clouds: Few Clouds
Visibility: 10 km
Cloud details: Few Clouds 1433 m
2021/09/23 01:30 LEMD 230130Z 35004KT 9999 FEW047 14/13 Q1019 NOSIG
 
LEVD - Valladolid, Spain
Distance from station: N 492km
Dati ricevuti: 23/09/2021 03:30
Sereno
Sereno
 Vento da ENE
Vento: ENE 22 km/h
Temperatura: 12°C
P.to Rugiada: 9°C
Umidità: 82%
Barometro: 1020 hPa
Summary: Sereno
Visibility: greater than 10 km
2021/09/23 01:30 LEVD 230130Z AUTO 06012KT CAVOK 12/09 Q1020
LEBL - Barcelona, Spain
Distance from station: NE 816km
Dati ricevuti: 23/09/2021 03:30
Few Clouds
Few Clouds
 Vento da NO
Vento: NO 13 km/h
Temperatura: 19°C
P.to Rugiada: 12°C
Umidità: 64%
Barometro: 1019 hPa
Clouds: Few Clouds
Visibility: 10 km
Cloud details: Few Clouds 1067 m
2021/09/23 01:30 LEBL 230130Z 32007KT 9999 FEW035 19/12 Q1019 NOSIG
LEVC - Valencia, Spain
Distance from station: ENE 535km
Dati ricevuti: 23/09/2021 03:30
Few Clouds
Few Clouds
 Vento da O
Vento: O 9 km/h
Temperatura: 19°C
P.to Rugiada: 18°C
Umidità: 94%
Barometro: 1017 hPa
Clouds: Few Clouds
Visibility: 10 km
Cloud details: Few Clouds 671 m
Few Clouds 914 m
2021/09/23 01:30 LEVC 230130Z 27005KT 9999 FEW022 FEW030CB 19/18 Q1017 NOSIG